Allen, Maryland
Current Conditions -  °F | °C
As of 10:54 AM on Thursday 23 Oct 2014 (Local Time) from KSBY Reporting Station
Overcast Overcast  
Wind Chill: 56°   Ceiling: 2400
Heat Index: 56°   Visibility: 10mi
Dew Point: 46°   Wind: 15mph
Humidity: 69%   Direction: 300°WNW
Pressure: 29.82"   Gusts: 26mph
Location:  38.29°N, 75.69°W
Report Text: KSBY 231454Z 30013G23KT 10SM BKN024 OVC029 13/08 A2982 RMK AO2 RAB33E42 SLP101 P0000 60000 T01330078 53005
Loading
Personal Weather Stations






























Interactive Weather Map New forecast layout! Learn more

10-Day Weather Forecast

Advertisements
Track Severe Weather on mobile